Aydlett, NC

12:10 AM EST on November 24, 2014 (GMT -0500)
OBX-Jack's Place | Change Station
CLOSE
Current Station
Personal Weather Station
Location: Grandy, NC
Elevation: 35 ft
Nearby Weather Stations

Elev 35 ft 36.24 °N, 75.86 °W | Updated 5 minutes ago

Rain
Rain
63.9 °F
Feels Like 63.9 °F
N
6.3
Wind Variable Wind from SSE

Today
High -- | Low -- °F
--% Chance of Precip.
Yesterday
High -- | Low -- °F
Precip. -- in
6:49 AM 4:50 PM
Waxing Crescent, 3% visible
Pressure 29.89 in
Visibility 5.0 miles
Clouds Mostly Cloudy 1900 ft
Mostly Cloudy 3300 ft
Overcast 4800 ft
Dew Point 63 °F
Humidity 98%
Rainfall 0.00 in
Snow Depth Not available.
UV 0 out of 12
Pollen .10 out of 12
Air Quality Not available.
Flu Activity Not available.
METAR KONX 240455Z AUTO 16008G16KT 120V190 5SM -RA BKN019 BKN033 OVC048 16/15 A2989 RMK AO2 P0007 T01620147 401721034

More Conditions Fewer Conditions

Pressure 29.89 in
Visibility 5.0 miles
Clouds Mostly Cloudy 1900 ft
Mostly Cloudy 3300 ft
Overcast 4800 ft
Dew Point 63 °F
Humidity 98%
Rainfall 0.00 in
Snow Depth Not available.
UV 0 out of 12
Pollen .10 out of 12
Air Quality Not available.
Flu Activity Not available.
METAR KONX 240455Z AUTO 16008G16KT 120V190 5SM -RA BKN019 BKN033 OVC048 16/15 A2989 RMK AO2 P0007 T01620147 401721034

More Conditions Fewer Conditions

10-Day Weather Forecast

Almanac

Astronomy

Nov. 24, 2014 Rise Set
Actual Time
Civil Twilight
Nautical Twilight
Astronomical Twilight
Moon
Length of Visible Light
Length of Day
Tomorrow will be .
, % of the Moon is Illuminated

Today's Extremes

State Highs State Lows

Community

WunderPhotos

Upload Photos

1,773,269 photos uploaded!

WunderBlogs® & News

Nearby

Air Quality

  Air Quality AQ Index Pollutant
Not available.

Snow Depth

Station Depth Elevation

Earthquake Activity

City Distance Mag. Time & Date
Minimum magnitude displayed is 2.5.

Coastal Water Temperatures

Place Temperature

Nearby Weather Stations